Time;durP1;ratioP1;P1;durP2;ratioP2;P2;SDS_P1;SDS_P2;PMS_P1;PMS_P2;Temp;Humidity;BMP_temperature;BMP_pressure;BME280_temperature;BME280_humidity;BME280_pressure;Samples;Min_cycle;Max_cycle;Signal;HPM_P1;HPM_P2
2022/12/31 09:02:22;;;;;;;2.25;0.95;;;;;;;14.11;75.59;96763.41;2098515;27;20547;-49
2022/12/31 09:03:36;;;;;;;8.70;0.90;;;;;;;14.44;75.07;96772.91;2099384;28;20298;-50
2022/12/31 09:05:10;;;;;;;2.33;1.00;;;;;;;14.72;73.92;96771.31;2098212;28;21078;-50
2022/12/31 09:06:21;;;;;;;4.68;1.10;;;;;;;14.62;73.45;96772.78;2083997;28;20281;-50
2022/12/31 09:07:33;;;;;;;3.38;1.02;;;;;;;14.91;72.66;96765.81;2083475;28;20197;-50
2022/12/31 09:08:37;;;;;;;1.55;0.82;;;;;;;14.92;72.27;96769.28;2084533;28;20618;-50
2022/12/31 09:09:50;;;;;;;1.88;0.85;;;;;;;15.09;71.66;96763.00;2083817;28;20683;-50
2022/12/31 09:10:54;;;;;;;1.90;0.90;;;;;;;15.27;71.07;96756.59;2081946;28;20232;-53
2022/12/31 09:11:58;;;;;;;2.83;1.10;;;;;;;15.27;71.25;96758.41;2083265;28;20189;-53
2022/12/31 09:13:14;;;;;;;2.15;1.00;;;;;;;15.28;71.18;96758.28;2081430;28;20193;-51
2022/12/31 09:14:34;;;;;;;1.95;1.00;;;;;;;15.33;70.64;96765.91;2082654;28;20223;-51
2022/12/31 09:15:45;;;;;;;6.68;1.50;;;;;;;15.29;70.87;96767.03;2080262;28;20193;-52
2022/12/31 09:17:21;;;;;;;2.42;1.13;;;;;;;15.24;71.07;96769.94;2081923;28;20201;-50
2022/12/31 09:18:23;;;;;;;4.90;1.55;;;;;;;15.53;70.04;96775.19;2082544;28;20231;-50
2022/12/31 09:19:35;;;;;;;9.63;0.95;;;;;;;15.68;69.41;96760.22;2082137;28;20621;-51
2022/12/31 09:20:37;;;;;;;1.40;0.80;;;;;;;15.88;68.93;96772.13;2081130;28;20228;-51
2022/12/31 09:21:45;;;;;;;1.65;0.70;;;;;;;16.19;67.56;96761.41;2081697;28;20208;-51
2022/12/31 09:22:47;;;;;;;2.10;0.90;;;;;;;16.08;67.84;96764.75;2082508;28;20207;-50
2022/12/31 09:23:48;;;;;;;7.00;0.80;;;;;;;15.81;68.70;96771.69;2082071;28;20201;-50
2022/12/31 09:24:50;;;;;;;2.05;1.00;;;;;;;15.86;68.79;96760.88;2081828;28;20199;-50
2022/12/31 09:26:13;;;;;;;2.95;0.80;;;;;;;15.83;68.95;96761.06;2080621;28;20221;-50
2022/12/31 09:27:27;;;;;;;1.70;0.75;;;;;;;15.95;68.26;96762.91;2082204;28;20200;-51
2022/12/31 09:28:59;;;;;;;2.00;0.70;;;;;;;16.23;67.92;96761.09;2082587;28;20203;-50
2022/12/31 09:30:06;;;;;;;1.75;0.80;;;;;;;16.34;67.50;96763.06;2081258;28;20660;-51
2022/12/31 09:31:14;;;;;;;2.80;0.70;;;;;;;16.36;66.84;96776.13;2080968;28;20222;-51
2022/12/31 09:32:58;;;;;;;3.85;0.80;;;;;;;16.54;66.79;96779.31;2081878;28;20197;-51
2022/12/31 09:34:21;;;;;;;1.67;0.77;;;;;;;16.69;66.22;96778.28;2082941;28;20617;-51
2022/12/31 09:35:51;;;;;;;1.30;1.10;;;;;;;16.60;66.06;96789.47;2083670;28;20188;-51
2022/12/31 09:36:58;;;;;;;1.88;0.90;;;;;;;16.70;65.90;96772.06;2081228;28;20248;-51
2022/12/31 09:38:09;;;;;;;2.28;0.90;;;;;;;17.15;64.51;96779.59;2081832;28;20224;-51
2022/12/31 09:39:21;;;;;;;5.65;1.00;;;;;;;16.85;65.15;96782.50;2082204;28;20802;-51
2022/12/31 09:40:39;;;;;;;3.03;0.80;;;;;;;16.64;65.34;96786.50;2080922;28;20245;-51
2022/12/31 09:42:11;;;;;;;1.95;0.80;;;;;;;16.81;64.80;96793.28;2080105;28;20205;-51
2022/12/31 09:43:48;;;;;;;1.40;0.85;;;;;;;16.31;66.65;96781.69;2081709;28;20205;-50
2022/12/31 09:45:04;;;;;;;2.40;0.80;;;;;;;16.61;65.98;96784.06;2082433;28;20200;-51
2022/12/31 09:46:41;;;;;;;2.38;0.80;;;;;;;16.58;65.38;96807.16;2080911;28;20231;-51
2022/12/31 09:48:14;;;;;;;2.20;0.88;;;;;;;16.41;66.30;96779.28;2077183;28;20248;-51
2022/12/31 09:49:54;;;;;;;1.23;0.70;;;;;;;16.54;65.88;96782.78;2082368;28;20198;-51
2022/12/31 09:51:19;;;;;;;1.30;0.70;;;;;;;16.43;65.97;96766.84;2080792;28;20302;-51
2022/12/31 09:52:35;;;;;;;1.30;0.70;;;;;;;16.73;65.30;96777.13;2081306;28;20204;-51
2022/12/31 09:53:48;;;;;;;2.15;0.80;;;;;;;16.97;64.47;96766.72;2081913;28;20196;-51
2022/12/31 09:54:58;;;;;;;3.58;0.80;;;;;;;17.41;63.22;96776.97;2081960;28;20608;-51
2022/12/31 09:56:22;;;;;;;2.80;0.90;;;;;;;17.52;63.02;96784.97;2080916;28;20232;-51
2022/12/31 09:57:30;;;;;;;1.10;0.70;;;;;;;17.10;63.11;96797.53;2084460;28;20860;-50
2022/12/31 09:58:56;;;;;;;1.42;0.82;;;;;;;17.27;63.41;96789.31;2082117;28;20200;-51
2022/12/31 10:00:10;;;;;;;2.25;0.60;;;;;;;17.52;62.83;96792.03;2081666;28;20203;-51
2022/12/31 10:01:26;;;;;;;1.10;0.70;;;;;;;17.24;63.53;96781.63;2077902;28;20573;-53
2022/12/31 10:02:58;;;;;;;2.40;0.73;;;;;;;17.06;63.51;96762.63;2079983;28;20212;-51
2022/12/31 10:04:28;;;;;;;1.00;0.65;;;;;;;17.22;63.42;96777.41;2082483;28;20205;-51
2022/12/31 10:05:42;;;;;;;2.28;0.70;;;;;;;16.89;63.98;96781.38;2080207;28;20188;-50
2022/12/31 10:07:16;;;;;;;1.20;0.70;;;;;;;17.25;63.51;96777.19;2079716;28;20197;-51
2022/12/31 10:08:20;;;;;;;2.22;0.80;;;;;;;17.03;63.67;96783.94;2084425;28;20200;-50
2022/12/31 10:09:32;;;;;;;1.73;0.80;;;;;;;17.30;62.64;96770.63;2084926;28;20299;-51
2022/12/31 10:10:45;;;;;;;3.10;0.90;;;;;;;17.79;62.34;96776.88;2080192;28;20633;-51
2022/12/31 10:12:11;;;;;;;1.10;0.60;;;;;;;17.35;62.33;96770.31;2081785;28;20196;-50
2022/12/31 10:13:25;;;;;;;1.83;0.80;;;;;;;17.57;62.44;96772.28;2080229;28;21086;-50
2022/12/31 10:15:03;;;;;;;1.95;0.70;;;;;;;17.44;62.76;96779.38;2072820;28;20259;-50
2022/12/31 10:16:19;;;;;;;1.23;0.60;;;;;;;17.49;62.39;96773.78;2074968;28;20217;-51
2022/12/31 10:17:33;;;;;;;5.57;1.20;;;;;;;17.70;61.17;96798.66;2077735;28;20197;-51
2022/12/31 10:19:11;;;;;;;1.30;0.70;;;;;;;18.01;60.91;96783.28;2077163;28;20611;-51
2022/12/31 10:20:35;;;;;;;3.40;0.77;;;;;;;17.82;61.55;96777.59;2075894;28;20589;-51
2022/12/31 10:22:13;;;;;;;2.47;0.80;;;;;;;17.65;61.94;96779.66;2075872;28;20221;-51
2022/12/31 10:23:31;;;;;;;3.13;0.68;;;;;;;17.89;61.37;96774.41;2076730;28;20236;-51
2022/12/31 10:24:50;;;;;;;1.60;0.70;;;;;;;18.21;60.41;96791.56;2076493;28;20200;-51
2022/12/31 10:26:26;;;;;;;1.00;0.70;;;;;;;19.12;58.45;96791.88;2075513;28;20240;-51
2022/12/31 10:27:45;;;;;;;1.50;0.70;;;;;;;18.88;58.62;96792.75;2076403;28;20197;-51
2022/12/31 10:29:20;;;;;;;1.90;0.80;;;;;;;18.52;58.98;96799.84;2075587;28;20233;-51
2022/12/31 10:30:23;;;;;;;2.17;0.70;;;;;;;17.99;59.96;96787.84;2075486;28;20205;-51
2022/12/31 10:31:38;;;;;;;1.48;0.70;;;;;;;17.82;60.24;96772.31;2075991;28;20874;-51
2022/12/31 10:33:17;;;;;;;3.00;0.75;;;;;;;17.84;60.43;96786.25;2075902;28;20196;-51
2022/12/31 10:34:44;;;;;;;1.35;0.70;;;;;;;17.92;60.16;96779.47;2064057;28;20206;-51
2022/12/31 10:35:52;;;;;;;1.73;1.05;;;;;;;18.28;59.70;96777.78;2075838;28;20269;-50
2022/12/31 10:37:16;;;;;;;1.80;0.70;;;;;;;18.23;59.56;96776.41;2077244;28;20244;-51
2022/12/31 10:38:44;;;;;;;1.75;0.80;;;;;;;18.53;58.87;96767.19;2076990;28;20209;-51
2022/12/31 10:40:03;;;;;;;1.45;0.70;;;;;;;18.75;58.40;96766.38;2075668;28;20198;-51
2022/12/31 10:41:55;;;;;;;2.47;0.70;;;;;;;19.08;57.65;96760.34;2075158;28;20248;-51
2022/12/31 10:43:15;;;;;;;2.28;0.82;;;;;;;18.82;57.87;96769.44;2061850;28;20245;-51
2022/12/31 10:44:56;;;;;;;5.53;0.70;;;;;;;18.68;58.22;96765.19;2073680;28;20225;-51
2022/12/31 10:46:16;;;;;;;2.83;0.80;;;;;;;19.13;57.36;96753.84;2076485;28;20726;-50
2022/12/31 10:47:42;;;;;;;1.75;0.73;;;;;;;19.31;56.18;96755.09;2075984;28;20232;-50
2022/12/31 10:49:05;;;;;;;1.63;0.90;;;;;;;19.34;56.17;96757.47;2076577;28;20193;-51
2022/12/31 10:50:56;;;;;;;3.05;1.00;;;;;;;18.85;57.00;96743.56;2074939;28;20663;-50
2022/12/31 10:52:18;;;;;;;2.42;0.93;;;;;;;19.31;55.95;96738.34;2062979;28;20218;-51
2022/12/31 10:54:13;;;;;;;1.98;1.10;;;;;;;18.98;56.94;96743.50;2063173;28;20198;-51
2022/12/31 10:55:50;;;;;;;1.33;0.70;;;;;;;18.95;56.55;96746.38;2049433;28;20241;-50
2022/12/31 10:57:39;;;;;;;1.40;0.70;;;;;;;18.63;57.09;96743.50;2057070;28;20725;-50
2022/12/31 10:59:14;;;;;;;4.40;0.75;;;;;;;18.86;57.01;96763.75;2031268;29;20213;-50
2022/12/31 11:00:20;;;;;;;2.45;0.75;;;;;;;19.29;55.58;96759.66;2034542;29;20215;-51
2022/12/31 11:01:36;;;;;;;2.00;0.80;;;;;;;19.05;55.98;96736.75;2043004;28;20368;-51
2022/12/31 11:03:19;;;;;;;1.10;0.68;;;;;;;19.04;55.75;96758.88;2052347;28;20222;-51
2022/12/31 11:04:46;;;;;;;1.25;0.70;;;;;;;19.08;55.82;96748.91;2056345;28;20286;-51
2022/12/31 11:06:08;;;;;;;1.65;0.70;;;;;;;18.90;56.55;96738.78;2057795;28;20249;-50
2022/12/31 11:07:35;;;;;;;1.27;0.70;;;;;;;18.26;58.17;96728.63;2058234;28;20728;-50
2022/12/31 11:08:51;;;;;;;1.30;0.60;;;;;;;18.80;57.39;96736.94;2056391;28;20206;-50
2022/12/31 11:10:12;;;;;;;1.55;0.70;;;;;;;19.04;56.31;96748.31;2057172;28;20210;-51
2022/12/31 11:11:17;;;;;;;1.20;0.70;;;;;;;19.05;55.87;96741.22;2056564;28;20222;-50
2022/12/31 11:12:45;;;;;;;3.28;0.80;;;;;;;18.69;56.79;96749.19;2057929;28;20207;-51
2022/12/31 11:14:24;;;;;;;1.77;0.70;;;;;;;18.63;57.74;96754.09;2059302;28;20298;-51
2022/12/31 11:15:28;;;;;;;1.52;0.70;;;;;;;18.35;57.45;96757.00;2057117;28;20285;-51
2022/12/31 11:16:44;;;;;;;2.35;0.60;;;;;;;18.65;57.13;96752.19;2059058;28;20214;-50
2022/12/31 11:18:11;;;;;;;1.20;0.77;;;;;;;18.87;56.15;96762.81;2058844;28;20233;-51
2022/12/31 11:19:25;;;;;;;1.75;0.80;;;;;;;18.98;56.37;96746.16;2057585;28;20198;-51
2022/12/31 11:20:48;;;;;;;2.00;0.70;;;;;;;18.96;55.98;96741.91;2055544;28;20210;-51
2022/12/31 11:22:18;;;;;;;1.98;0.70;;;;;;;19.02;56.31;96752.03;2059133;28;20202;-50
2022/12/31 11:23:38;;;;;;;1.33;0.60;;;;;;;18.67;56.49;96753.75;2048332;28;20233;-50
2022/12/31 11:24:51;;;;;;;1.10;0.70;;;;;;;18.68;57.33;96747.50;2055190;28;20981;-50
2022/12/31 11:26:22;;;;;;;1.92;0.82;;;;;;;18.87;56.90;96738.16;2058563;28;20256;-51
2022/12/31 11:27:48;;;;;;;1.30;0.70;;;;;;;18.92;56.31;96734.22;2054652;28;20250;-50
2022/12/31 11:28:52;;;;;;;2.28;0.80;;;;;;;19.08;56.07;96739.19;2054389;28;20203;-50
2022/12/31 11:30:46;;;;;;;1.10;0.70;;;;;;;18.90;56.29;96728.19;2069426;28;20456;-50
2022/12/31 11:32:05;;;;;;;1.17;0.70;;;;;;;19.07;56.20;96724.28;2062557;28;20771;-51
2022/12/31 11:33:25;;;;;;;2.20;0.80;;;;;;;18.85;55.97;96756.78;2068282;28;20206;-51
2022/12/31 11:35:02;;;;;;;2.22;0.70;;;;;;;18.72;56.82;96722.50;2079463;28;20196;-51
2022/12/31 11:36:18;;;;;;;1.70;0.70;;;;;;;18.22;57.70;96735.94;2076885;28;20229;-51
2022/12/31 11:37:52;;;;;;;2.92;0.70;;;;;;;18.44;57.47;96735.16;2076102;28;20197;-50
2022/12/31 11:39:26;;;;;;;3.58;0.70;;;;;;;18.89;56.76;96728.28;2068465;28;20577;-51
2022/12/31 11:40:43;;;;;;;2.20;0.70;;;;;;;18.97;56.08;96723.31;2075944;28;20197;-51
2022/12/31 11:41:51;;;;;;;2.22;1.13;;;;;;;19.17;55.84;96719.09;2084785;28;20605;-51
2022/12/31 11:42:59;;;;;;;4.40;0.90;;;;;;;19.09;55.90;96717.03;2083868;28;20255;-51
2022/12/31 11:44:15;;;;;;;1.17;0.70;;;;;;;19.39;55.61;96725.34;2084329;28;20560;-52
2022/12/31 11:45:38;;;;;;;1.95;0.73;;;;;;;19.23;55.53;96725.72;2082955;28;20197;-53
2022/12/31 11:46:57;;;;;;;1.35;0.70;;;;;;;19.29;55.42;96713.78;2082755;28;20288;-52
2022/12/31 11:48:21;;;;;;;1.77;0.73;;;;;;;19.31;55.48;96719.81;2083422;28;20200;-52
2022/12/31 11:49:37;;;;;;;2.75;0.80;;;;;;;18.71;57.20;96709.41;2083612;28;20205;-52
2022/12/31 11:50:57;;;;;;;1.30;0.95;;;;;;;18.80;56.52;96737.78;2082895;28;20224;-52
2022/12/31 11:52:23;;;;;;;1.65;0.75;;;;;;;18.68;56.62;96725.50;2081781;28;20212;-52
2022/12/31 11:53:43;;;;;;;2.70;0.77;;;;;;;19.03;56.00;96716.69;2083014;28;20204;-52
2022/12/31 11:54:57;;;;;;;1.60;0.80;;;;;;;18.90;55.61;96717.63;2083414;28;20275;-52
2022/12/31 11:56:19;;;;;;;2.95;0.93;;;;;;;18.66;56.39;96693.03;2083085;28;20742;-52
2022/12/31 11:57:36;;;;;;;1.20;0.70;;;;;;;18.94;56.38;96707.66;2084064;28;20517;-52
2022/12/31 11:58:44;;;;;;;1.65;0.80;;;;;;;19.39;55.46;96694.41;2083975;28;20204;-52
2022/12/31 11:59:45;;;;;;;1.08;0.70;;;;;;;19.60;55.03;96708.72;2083252;28;20670;-52
2022/12/31 12:01:03;;;;;;;1.75;0.60;;;;;;;19.33;55.15;96694.06;2089951;28;20220;-53
2022/12/31 12:02:32;;;;;;;1.02;0.65;;;;;;;19.35;54.93;96705.34;2086607;28;20335;-52
2022/12/31 12:03:38;;;;;;;1.33;0.80;;;;;;;19.38;55.01;96700.66;2080444;28;20201;-52
2022/12/31 12:04:40;;;;;;;1.30;0.70;;;;;;;18.88;55.99;96700.16;2081223;28;20231;-52
2022/12/31 12:05:41;;;;;;;1.20;0.70;;;;;;;19.05;55.64;96705.00;2082733;28;20232;-52
2022/12/31 12:06:44;;;;;;;2.33;0.90;;;;;;;19.37;55.09;96703.44;2083341;28;20201;-52
2022/12/31 12:07:48;;;;;;;2.63;1.30;;;;;;;19.31;55.37;96688.91;2084472;28;20199;-52
2022/12/31 12:08:49;;;;;;;2.70;1.20;;;;;;;19.85;54.20;96697.00;2083634;28;20200;-52
2022/12/31 12:09:54;;;;;;;4.32;1.58;;;;;;;19.79;53.53;96708.06;2082787;28;20222;-52
2022/12/31 12:11:05;;;;;;;2.58;1.05;;;;;;;19.59;54.15;96699.91;2082324;28;20227;-52
2022/12/31 12:12:06;;;;;;;1.65;0.80;;;;;;;19.50;54.37;96700.66;2084420;28;20208;-52
2022/12/31 12:13:26;;;;;;;1.77;0.70;;;;;;;19.52;53.85;96699.56;2083819;28;20199;-52
2022/12/31 12:14:32;;;;;;;1.10;0.60;;;;;;;19.39;54.84;96697.06;2082375;28;20193;-52
2022/12/31 12:15:34;;;;;;;2.03;0.80;;;;;;;18.96;55.74;96696.94;2082479;28;20224;-52
2022/12/31 12:16:36;;;;;;;1.10;0.60;;;;;;;18.47;56.42;96698.88;2084677;28;20201;-52
2022/12/31 12:17:38;;;;;;;1.52;0.80;;;;;;;18.26;57.15;96696.91;2083819;28;20223;-52
2022/12/31 12:18:47;;;;;;;2.60;0.70;;;;;;;18.03;57.94;96702.13;2083801;28;20197;-52
2022/12/31 12:19:53;;;;;;;1.35;0.80;;;;;;;17.84;58.28;96705.22;2083361;28;20197;-52
2022/12/31 12:21:11;;;;;;;1.70;0.70;;;;;;;17.62;58.81;96706.78;2081746;28;20248;-52
2022/12/31 12:22:24;;;;;;;1.17;0.70;;;;;;;17.65;59.15;96692.53;2080144;28;20235;-52
2022/12/31 12:23:26;;;;;;;1.60;0.77;;;;;;;17.78;59.04;96685.38;2083607;28;20782;-52
2022/12/31 12:24:28;;;;;;;2.08;0.60;;;;;;;17.87;59.07;96689.16;2080728;28;20197;-52
2022/12/31 12:25:40;;;;;;;1.83;0.75;;;;;;;17.74;58.64;96681.28;2082328;28;20200;-52
2022/12/31 12:26:44;;;;;;;2.30;0.90;;;;;;;17.58;58.87;96683.34;2084746;28;20192;-52
2022/12/31 12:27:46;;;;;;;1.50;0.80;;;;;;;17.52;58.99;96682.03;2083289;28;20196;-52
2022/12/31 12:28:47;;;;;;;1.45;0.70;;;;;;;17.32;59.89;96694.00;2083866;28;20211;-52
2022/12/31 12:29:48;;;;;;;2.13;0.80;;;;;;;17.36;59.93;96682.25;2083047;28;20216;-52
2022/12/31 12:31:19;;;;;;;3.28;0.80;;;;;;;17.50;59.52;96683.09;2081244;28;20321;-52
2022/12/31 12:32:24;;;;;;;1.55;0.70;;;;;;;17.74;58.85;96678.66;2083232;28;20201;-52
2022/12/31 12:33:28;;;;;;;3.85;0.70;;;;;;;17.43;59.25;96677.38;2082416;28;20736;-52
2022/12/31 12:34:35;;;;;;;2.88;0.80;;;;;;;17.39;59.62;96697.88;2082820;28;20205;-52
2022/12/31 12:35:38;;;;;;;1.00;0.60;;;;;;;17.58;59.41;96680.72;2082160;28;20196;-52
2022/12/31 12:36:45;;;;;;;1.20;0.70;;;;;;;17.66;59.12;96673.09;2079976;28;20773;-52
2022/12/31 12:38:01;;;;;;;1.80;0.90;;;;;;;17.78;58.84;96677.47;2082478;28;20201;-52
2022/12/31 12:39:04;;;;;;;4.82;0.70;;;;;;;17.60;58.80;96682.28;2082848;28;20207;-52
2022/12/31 12:40:22;;;;;;;7.53;0.82;;;;;;;17.75;58.87;96676.84;2084008;28;20228;-52
2022/12/31 12:41:33;;;;;;;1.45;0.95;;;;;;;18.02;58.42;96675.81;2083267;28;20216;-52
2022/12/31 12:42:35;;;;;;;1.60;0.65;;;;;;;18.05;58.32;96680.84;2083953;28;20200;-52
2022/12/31 12:43:37;;;;;;;3.05;0.60;;;;;;;17.97;57.88;96685.84;2079750;28;20213;-52
2022/12/31 12:44:40;;;;;;;1.95;0.80;;;;;;;18.02;57.95;96657.31;2081451;28;20311;-52
2022/12/31 12:45:45;;;;;;;1.55;0.88;;;;;;;18.08;57.72;96672.69;2081556;28;20197;-52
2022/12/31 12:46:52;;;;;;;1.15;0.77;;;;;;;18.11;57.93;96680.41;2083501;28;20236;-52
2022/12/31 12:47:58;;;;;;;3.10;1.00;;;;;;;18.03;58.08;96675.69;2085501;28;20295;-52
2022/12/31 12:49:02;;;;;;;2.42;0.98;;;;;;;17.98;58.35;96669.06;2083669;28;20200;-52
2022/12/31 12:50:05;;;;;;;1.58;0.70;;;;;;;18.21;57.47;96670.00;2082617;28;20231;-52
2022/12/31 12:51:46;;;;;;;2.10;0.88;;;;;;;17.96;58.48;96677.09;2083365;28;20306;-52
2022/12/31 12:53:11;;;;;;;1.20;0.70;;;;;;;17.91;58.44;96671.28;2082541;28;20287;-52
2022/12/31 12:54:35;;;;;;;1.27;0.70;;;;;;;17.88;58.78;96668.88;2082868;28;20714;-52
2022/12/31 12:56:09;;;;;;;1.95;0.82;;;;;;;17.88;58.59;96682.09;2079155;28;20689;-52
2022/12/31 12:57:25;;;;;;;3.30;0.80;;;;;;;17.82;58.83;96679.88;2078884;28;20636;-52
2022/12/31 12:58:47;;;;;;;1.73;0.70;;;;;;;17.63;59.01;96681.22;2084202;28;20228;-52
2022/12/31 13:00:00;;;;;;;2.58;0.80;;;;;;;17.69;59.12;96677.31;2080910;28;20204;-52
2022/12/31 13:01:22;;;;;;;3.58;0.80;;;;;;;17.49;59.39;96676.13;2081068;28;20247;-52
2022/12/31 13:02:50;;;;;;;9.05;0.90;;;;;;;17.61;59.45;96691.91;2083738;28;20339;-52
2022/12/31 13:04:18;;;;;;;2.20;0.70;;;;;;;17.71;59.23;96688.59;2082725;28;20212;-52
2022/12/31 13:05:51;;;;;;;1.45;0.70;;;;;;;17.70;59.16;96682.47;2083015;28;20303;-52
2022/12/31 13:07:00;;;;;;;3.75;0.77;;;;;;;17.71;58.84;96697.38;2079792;28;20440;-51
2022/12/31 13:08:25;;;;;;;1.00;0.60;;;;;;;17.66;58.93;96686.31;2081909;28;20204;-52
2022/12/31 13:09:29;;;;;;;2.10;0.73;;;;;;;17.56;59.50;96677.34;2081970;28;20212;-52
2022/12/31 13:11:06;;;;;;;1.75;1.10;;;;;;;17.58;59.66;96680.72;2081271;28;20247;-52
2022/12/31 13:12:33;;;;;;;4.30;1.60;;;;;;;17.68;59.19;96681.72;2084009;28;20242;-52
2022/12/31 13:14:12;;;;;;;1.83;0.80;;;;;;;17.48;59.47;96675.25;2081483;28;20349;-52
2022/12/31 13:15:36;;;;;;;1.65;0.70;;;;;;;17.39;59.47;96665.38;2082545;28;20591;-52
2022/12/31 13:17:02;;;;;;;2.00;0.80;;;;;;;17.56;59.36;96661.50;2080468;28;20215;-51
2022/12/31 13:18:32;;;;;;;1.10;0.70;;;;;;;17.42;59.99;96666.00;2086701;28;20585;-52
2022/12/31 13:19:47;;;;;;;1.63;0.70;;;;;;;17.42;59.84;96663.34;2088421;28;20196;-51
2022/12/31 13:21:02;;;;;;;2.25;0.80;;;;;;;17.30;60.30;96662.41;2087523;28;20223;-52
2022/12/31 13:22:21;;;;;;;1.75;0.82;;;;;;;17.54;60.02;96668.69;2082582;28;20207;-51
2022/12/31 13:23:39;;;;;;;1.98;0.80;;;;;;;17.43;59.92;96677.38;2079760;28;20239;-51
2022/12/31 13:25:01;;;;;;;2.17;0.70;;;;;;;17.43;59.83;96672.97;2080892;28;20647;-51
2022/12/31 13:26:17;;;;;;;1.30;0.63;;;;;;;17.48;59.64;96667.34;2080907;28;20254;-51
2022/12/31 13:27:31;;;;;;;1.20;0.70;;;;;;;17.52;59.75;96667.97;2081975;28;20204;-51
2022/12/31 13:28:34;;;;;;;1.52;0.90;;;;;;;17.29;60.33;96665.19;2083402;28;20192;-52
2022/12/31 13:29:38;;;;;;;1.95;0.90;;;;;;;17.23;60.24;96665.59;2082975;28;20192;-52
2022/12/31 13:30:47;;;;;;;1.27;0.70;;;;;;;17.13;60.51;96661.00;2082602;28;20769;-51
2022/12/31 13:31:50;;;;;;;2.40;0.90;;;;;;;17.27;60.29;96653.91;2082878;28;20215;-51
2022/12/31 13:32:59;;;;;;;7.07;1.02;;;;;;;17.11;60.31;96651.50;2083419;28;20208;-52
2022/12/31 13:34:09;;;;;;;2.05;1.00;;;;;;;17.03;60.39;96659.13;2083873;28;20201;-52
2022/12/31 13:35:37;;;;;;;1.80;1.10;;;;;;;17.02;60.29;96666.19;2079771;28;20201;-52
2022/12/31 13:36:41;;;;;;;2.13;1.13;;;;;;;16.86;60.69;96644.44;2073972;28;20304;-51
2022/12/31 13:37:45;;;;;;;3.03;1.30;;;;;;;16.96;60.61;96654.28;2074192;28;20193;-51
2022/12/31 13:38:53;;;;;;;1.50;0.90;;;;;;;16.96;60.42;96648.16;2075805;28;20368;-51
2022/12/31 13:40:01;;;;;;;2.95;1.10;;;;;;;16.93;60.22;96656.28;2073965;28;20209;-51
2022/12/31 13:41:10;;;;;;;2.35;0.70;;;;;;;16.80;60.45;96648.38;2071833;28;20233;-51
2022/12/31 13:42:16;;;;;;;2.40;0.90;;;;;;;16.85;60.73;96648.03;2075506;28;20244;-51
2022/12/31 13:43:35;;;;;;;2.10;0.75;;;;;;;16.86;60.47;96639.16;2074087;28;20289;-52
2022/12/31 13:44:50;;;;;;;2.17;0.85;;;;;;;16.76;60.33;96636.31;2075886;28;20201;-52
2022/12/31 13:46:08;;;;;;;1.30;0.70;;;;;;;16.81;60.56;96642.13;2074963;28;20229;-52
2022/12/31 13:47:22;;;;;;;2.50;1.10;;;;;;;16.82;60.37;96641.19;2075165;28;20197;-52
2022/12/31 13:48:33;;;;;;;2.45;0.80;;;;;;;16.83;60.05;96645.50;2075421;28;20207;-51
2022/12/31 13:49:56;;;;;;;5.57;0.90;;;;;;;16.71;60.39;96644.56;2077065;28;20288;-52
2022/12/31 13:51:10;;;;;;;1.70;0.70;;;;;;;16.72;60.55;96655.94;2073814;28;20228;-51
2022/12/31 13:52:26;;;;;;;3.55;0.80;;;;;;;16.71;60.78;96643.72;2074105;28;20229;-52
2022/12/31 13:53:58;;;;;;;1.50;0.80;;;;;;;16.74;60.51;96640.88;2080413;28;20228;-52
2022/12/31 13:55:12;;;;;;;2.38;0.70;;;;;;;16.70;60.73;96637.59;2077554;28;20244;-52
2022/12/31 13:56:20;;;;;;;1.35;0.70;;;;;;;16.58;60.19;96641.94;2075462;28;20786;-51
2022/12/31 13:57:35;;;;;;;4.63;1.08;;;;;;;16.65;60.51;96648.47;2077206;28;20197;-52
2022/12/31 13:59:03;;;;;;;1.10;0.60;;;;;;;16.80;60.39;96640.47;2077429;28;20200;-52
2022/12/31 14:00:13;;;;;;;1.67;0.70;;;;;;;16.73;60.53;96644.47;2073791;28;20237;-51
2022/12/31 14:01:21;;;;;;;2.65;1.02;;;;;;;16.81;59.85;96648.25;2074909;28;20229;-52
2022/12/31 14:02:42;;;;;;;2.20;0.98;;;;;;;16.66;60.23;96644.06;2075886;28;20247;-52
2022/12/31 14:03:59;;;;;;;2.17;0.70;;;;;;;16.72;60.37;96646.28;2074654;28;20198;-52
2022/12/31 14:05:15;;;;;;;2.35;0.70;;;;;;;16.73;59.90;96647.09;2076354;28;20208;-53
2022/12/31 14:06:27;;;;;;;1.40;0.68;;;;;;;16.70;60.29;96650.78;2075508;28;20229;-51
2022/12/31 14:07:36;;;;;;;1.17;0.65;;;;;;;16.63;60.23;96658.28;2074773;28;20209;-51
2022/12/31 14:08:45;;;;;;;1.30;0.70;;;;;;;16.60;60.70;96647.09;2077044;28;20201;-51
2022/12/31 14:09:47;;;;;;;2.05;0.90;;;;;;;16.56;60.57;96646.47;2074420;28;20216;-51
2022/12/31 14:10:58;;;;;;;2.20;0.90;;;;;;;16.44;61.06;96647.31;2072344;28;20241;-51
2022/12/31 14:12:18;;;;;;;2.15;0.80;;;;;;;16.51;60.72;96653.84;2074625;28;20197;-51
2022/12/31 14:13:33;;;;;;;1.25;0.80;;;;;;;16.49;60.69;96651.34;2077301;28;20197;-51
2022/12/31 14:14:48;;;;;;;2.25;0.60;;;;;;;16.38;61.00;96656.50;2076106;28;20727;-52
2022/12/31 14:16:10;;;;;;;1.23;0.77;;;;;;;16.27;61.63;96651.94;2075805;28;20229;-51
2022/12/31 14:17:44;;;;;;;1.10;0.70;;;;;;;16.35;61.64;96651.41;2077003;28;20212;-51
